Time;durP1;ratioP1;P1;durP2;ratioP2;P2;SDS_P1;SDS_P2;PMS_P1;PMS_P2;Temp;Humidity;BMP_temperature;BMP_pressure;BME280_temperature;BME280_humidity;BME280_pressure;Samples;Min_cycle;Max_cycle;Signal;HPM_P1;HPM_P2
2023/03/29 00:00:26;;;;;;;6.55;1.90;;;5.90;99.90;;;;;;4978321;28;20105;-61
2023/03/29 00:02:55;;;;;;;5.20;2.25;;;5.80;99.90;;;;;;4995393;28;20489;-62
2023/03/29 00:05:24;;;;;;;4.07;1.83;;;5.90;99.90;;;;;;4999800;28;20049;-62
2023/03/29 00:07:53;;;;;;;3.67;1.90;;;5.90;99.90;;;;;;5003618;28;20029;-61
2023/03/29 00:10:21;;;;;;;5.43;1.80;;;5.90;99.90;;;;;;4994921;28;20030;-61
2023/03/29 00:12:47;;;;;;;3.25;1.70;;;5.90;99.90;;;;;;5000466;28;20337;-62
2023/03/29 00:15:13;;;;;;;2.90;1.45;;;5.90;99.90;;;;;;4996189;28;20428;-61
2023/03/29 00:17:39;;;;;;;3.60;1.87;;;5.90;99.90;;;;;;5008925;28;20061;-62
2023/03/29 00:20:08;;;;;;;4.80;2.00;;;5.90;99.90;;;;;;5007540;28;20057;-62
2023/03/29 00:22:36;;;;;;;5.53;2.08;;;5.90;99.90;;;;;;5001405;28;20050;-62
2023/03/29 00:25:03;;;;;;;2.55;1.35;;;5.90;99.90;;;;;;5007342;28;20032;-78
2023/03/29 00:27:28;;;;;;;4.53;1.98;;;5.90;99.90;;;;;;5001707;28;20022;-63
2023/03/29 00:29:55;;;;;;;5.40;1.83;;;5.90;99.90;;;;;;5003811;28;20041;-62
2023/03/29 00:32:21;;;;;;;3.08;1.55;;;5.90;99.90;;;;;;4983368;28;20018;-62
2023/03/29 00:34:49;;;;;;;3.33;1.83;;;5.90;99.90;;;;;;5011736;28;20030;-62
2023/03/29 00:37:17;;;;;;;5.90;1.90;;;6.00;99.90;;;;;;4998289;28;20030;-61
2023/03/29 00:39:47;;;;;;;4.47;2.35;;;6.00;99.90;;;;;;4998874;28;20028;-77
2023/03/29 00:42:14;;;;;;;7.22;1.92;;;6.00;99.90;;;;;;4981067;28;20112;-62
2023/03/29 00:45:00;;;;;;;5.45;2.15;;;6.00;99.90;;;;;;4997967;28;20481;-62
2023/03/29 00:47:31;;;;;;;5.57;1.80;;;6.10;99.90;;;;;;4998086;28;20461;-75
2023/03/29 00:50:03;;;;;;;3.95;2.28;;;6.10;99.90;;;;;;4999158;28;20033;-62
2023/03/29 00:52:30;;;;;;;3.17;1.95;;;6.10;99.90;;;;;;5006937;28;20065;-62
2023/03/29 00:55:02;;;;;;;4.55;1.83;;;6.10;99.90;;;;;;4997707;28;20414;-77
2023/03/29 00:57:32;;;;;;;5.28;1.67;;;6.10;99.90;;;;;;4998067;28;20054;-62
2023/03/29 01:00:00;;;;;;;10.80;2.33;;;6.20;99.90;;;;;;4994057;28;20040;-62
2023/03/29 01:02:28;;;;;;;4.97;2.03;;;6.20;99.90;;;;;;4998379;28;20076;-77
2023/03/29 01:05:00;;;;;;;2.83;2.00;;;6.20;99.90;;;;;;4999136;28;20081;-62
2023/03/29 01:07:36;;;;;;;7.32;1.75;;;6.20;99.90;;;;;;5000344;28;20426;-63
2023/03/29 01:10:13;;;;;;;;;;;6.20;99.90;;;;;;5003579;28;20030;-62
2023/03/29 01:12:41;;;;;;;;;;;6.20;99.90;;;;;;5007102;28;20012;-62
2023/03/29 01:15:12;;;;;;;2.83;1.52;;;6.20;99.90;;;;;;4998016;28;19910;-62
2023/03/29 01:17:42;;;;;;;3.47;1.98;;;6.10;99.90;;;;;;5013921;28;20029;-65
2023/03/29 01:20:32;;;;;;;5.22;2.08;;;6.10;99.90;;;;;;4995808;28;20089;-62
2023/03/29 01:23:20;;;;;;;5.07;2.40;;;6.10;99.90;;;;;;4947888;28;20144;-73
2023/03/29 01:26:04;;;;;;;4.47;2.38;;;6.10;99.90;;;;;;4956446;28;20038;-62
2023/03/29 01:28:37;;;;;;;3.83;1.90;;;6.20;99.90;;;;;;4945625;28;20071;-63
2023/03/29 01:31:12;;;;;;;4.97;1.80;;;6.10;99.90;;;;;;4956389;28;20031;-62
2023/03/29 01:34:04;;;;;;;5.05;2.20;;;6.20;99.90;;;;;;4943959;28;20094;-71
2023/03/29 01:36:48;;;;;;;2.80;1.77;;;6.20;99.90;;;;;;4947548;28;20039;-62
2023/03/29 01:39:14;;;;;;;4.95;2.50;;;6.20;99.90;;;;;;4939424;29;20431;-61
2023/03/29 01:41:45;;;;;;;14.18;3.03;;;6.20;99.90;;;;;;4955102;28;20094;-63
2023/03/29 01:44:25;;;;;;;5.00;2.40;;;6.20;99.90;;;;;;4956461;28;20114;-62
2023/03/29 01:47:00;;;;;;;4.45;2.33;;;6.20;99.90;;;;;;4948532;28;20046;-63
2023/03/29 01:49:38;;;;;;;5.47;2.28;;;6.20;99.90;;;;;;4947629;28;20041;-62
2023/03/29 01:52:14;;;;;;;6.93;2.70;;;6.20;99.90;;;;;;4936601;29;20052;-62
2023/03/29 01:54:48;;;;;;;3.80;2.53;;;6.20;99.90;;;;;;4947491;28;20111;-62
2023/03/29 01:57:15;;;;;;;5.18;2.00;;;6.20;99.90;;;;;;4945967;28;20034;-63
2023/03/29 01:59:43;;;;;;;3.53;2.35;;;6.20;99.90;;;;;;4979574;28;20040;-62
2023/03/29 02:02:14;;;;;;;5.63;2.58;;;6.20;99.90;;;;;;5000151;28;20033;-62
2023/03/29 02:04:50;;;;;;;5.65;2.28;;;6.20;99.90;;;;;;5005737;28;20046;-62
2023/03/29 02:07:21;;;;;;;6.75;2.42;;;6.20;99.90;;;;;;4999908;28;20026;-62
2023/03/29 02:09:48;;;;;;;8.93;2.92;;;6.20;99.90;;;;;;4996476;28;20049;-77
2023/03/29 02:12:15;;;;;;;3.72;2.55;;;6.20;99.90;;;;;;4996371;28;20537;-63
2023/03/29 02:14:42;;;;;;;3.97;2.75;;;6.30;99.90;;;;;;4996642;28;20022;-62
2023/03/29 02:17:25;;;;;;;5.70;2.30;;;6.30;99.90;;;;;;5001570;28;20060;-62
2023/03/29 02:19:56;;;;;;;6.97;3.03;;;6.20;99.90;;;;;;4996715;28;20042;-62
2023/03/29 02:22:34;;;;;;;6.40;2.83;;;6.20;99.90;;;;;;4996052;28;20081;-62
2023/03/29 02:25:02;;;;;;;3.72;2.28;;;6.30;99.90;;;;;;4996277;28;20325;-63
2023/03/29 02:27:28;;;;;;;7.63;2.70;;;6.20;99.90;;;;;;4997338;28;20038;-62
2023/03/29 02:29:54;;;;;;;6.68;2.83;;;6.20;99.90;;;;;;4994921;28;20034;-62
2023/03/29 02:32:32;;;;;;;9.95;2.88;;;6.20;99.90;;;;;;4996607;28;20318;-78
2023/03/29 02:35:05;;;;;;;4.25;2.38;;;6.20;99.90;;;;;;5009942;28;20030;-62
2023/03/29 02:37:33;;;;;;;6.57;2.53;;;6.30;99.90;;;;;;4996648;28;20113;-63
2023/03/29 02:40:00;;;;;;;8.43;2.78;;;6.30;99.90;;;;;;4995975;28;20106;-62
2023/03/29 02:42:27;;;;;;;7.13;2.58;;;6.30;99.90;;;;;;4978346;28;20081;-62
2023/03/29 02:44:57;;;;;;;5.57;2.90;;;6.30;99.90;;;;;;4995670;28;20338;-63
2023/03/29 02:47:34;;;;;;;9.07;3.47;;;6.30;99.90;;;;;;4996401;28;20100;-61
2023/03/29 02:50:00;;;;;;;6.32;3.55;;;6.30;99.90;;;;;;4999021;28;20097;-62
2023/03/29 02:52:32;;;;;;;9.80;2.45;;;6.30;99.90;;;;;;5006516;28;20462;-62
2023/03/29 02:55:02;;;;;;;4.25;2.60;;;6.30;99.90;;;;;;5000572;28;20048;-62
2023/03/29 02:57:31;;;;;;;5.30;2.75;;;6.30;99.90;;;;;;5004520;28;20113;-62
2023/03/29 02:59:57;;;;;;;5.07;2.40;;;6.30;99.90;;;;;;5000298;28;20030;-62
2023/03/29 03:02:26;;;;;;;11.13;3.15;;;6.30;99.90;;;;;;4996051;28;20026;-62
2023/03/29 03:04:52;;;;;;;5.07;2.78;;;6.40;99.90;;;;;;4995914;28;20422;-61
2023/03/29 03:07:18;;;;;;;8.70;2.90;;;6.40;99.90;;;;;;5008594;28;20043;-61
2023/03/29 03:09:46;;;;;;;8.10;3.35;;;6.40;99.90;;;;;;4995557;28;20619;-78
2023/03/29 03:12:12;;;;;;;7.65;2.67;;;6.40;99.90;;;;;;4982032;28;20049;-62
2023/03/29 03:14:38;;;;;;;6.70;3.03;;;6.40;99.90;;;;;;5005358;28;20467;-61
2023/03/29 03:17:04;;;;;;;7.38;2.88;;;6.50;99.90;;;;;;4995297;28;20413;-61
2023/03/29 03:19:29;;;;;;;6.80;2.67;;;6.50;99.90;;;;;;4995597;28;20026;-62
2023/03/29 03:21:55;;;;;;;4.77;2.93;;;6.50;99.90;;;;;;5008086;28;20037;-61
2023/03/29 03:24:21;;;;;;;7.83;3.10;;;6.50;99.90;;;;;;5001832;28;20302;-61
2023/03/29 03:26:47;;;;;;;10.93;3.17;;;6.50;99.90;;;;;;5011551;28;20037;-79
2023/03/29 03:29:14;;;;;;;11.70;3.40;;;6.50;99.90;;;;;;5000727;28;20038;-62
2023/03/29 03:31:40;;;;;;;6.55;2.60;;;6.50;99.90;;;;;;4995502;28;20042;-62
2023/03/29 03:34:07;;;;;;;6.70;2.90;;;6.50;99.90;;;;;;4995614;28;20046;-61
2023/03/29 03:36:34;;;;;;;3.88;2.55;;;6.50;99.90;;;;;;4996250;28;20097;-62
2023/03/29 03:39:01;;;;;;;6.47;2.65;;;6.50;99.90;;;;;;4995431;28;20030;-61
2023/03/29 03:41:27;;;;;;;6.55;2.67;;;6.50;99.90;;;;;;4995376;28;20034;-61
2023/03/29 03:43:52;;;;;;;6.23;3.40;;;6.50;99.90;;;;;;4995541;28;20113;-78
2023/03/29 03:46:18;;;;;;;8.67;3.70;;;6.50;99.90;;;;;;4994960;28;20061;-61
2023/03/29 03:48:45;;;;;;;12.90;3.30;;;6.50;99.90;;;;;;5003748;28;20032;-78
2023/03/29 03:51:11;;;;;;;6.38;3.15;;;6.50;99.90;;;;;;4995159;28;20066;-62
2023/03/29 03:53:38;;;;;;;7.45;2.15;;;6.50;99.90;;;;;;4995287;28;20038;-62
2023/03/29 03:56:07;;;;;;;3.50;2.30;;;6.50;99.90;;;;;;4999568;28;20023;-61
2023/03/29 03:58:37;;;;;;;5.60;3.15;;;6.50;99.90;;;;;;4998911;28;20018;-61
2023/03/29 04:01:04;;;;;;;10.25;3.83;;;6.50;99.90;;;;;;4998881;28;20027;-63
2023/03/29 04:03:30;;;;;;;7.50;2.90;;;6.50;99.90;;;;;;5004858;28;20026;-62
2023/03/29 04:05:59;;;;;;;8.88;3.72;;;6.50;99.90;;;;;;4999012;28;20050;-62
2023/03/29 04:08:25;;;;;;;9.05;3.28;;;6.50;99.90;;;;;;4998790;28;20036;-64
2023/03/29 04:10:58;;;;;;;4.07;2.70;;;6.50;99.90;;;;;;4998751;28;20030;-62
2023/03/29 04:13:25;;;;;;;12.70;3.60;;;6.50;99.90;;;;;;4998930;28;20102;-62
2023/03/29 04:15:55;;;;;;;5.75;3.17;;;6.50;99.90;;;;;;5004884;28;20022;-62
2023/03/29 04:18:25;;;;;;;8.40;3.92;;;6.50;99.90;;;;;;5008808;28;20050;-62
2023/03/29 04:20:51;;;;;;;5.47;3.00;;;6.50;99.90;;;;;;5018190;28;20045;-62
2023/03/29 04:23:16;;;;;;;5.47;3.00;;;6.60;99.90;;;;;;5007345;28;20322;-62
2023/03/29 04:25:42;;;;;;;7.03;3.20;;;6.60;99.90;;;;;;5001779;28;20046;-62
2023/03/29 04:28:11;;;;;;;5.90;3.13;;;6.60;99.90;;;;;;4999093;28;20377;-61
2023/03/29 04:30:36;;;;;;;6.38;3.70;;;6.60;99.90;;;;;;4998421;28;20166;-62
2023/03/29 04:33:02;;;;;;;7.70;3.40;;;6.60;99.90;;;;;;5012322;28;20109;-77
2023/03/29 04:35:28;;;;;;;10.88;3.40;;;6.60;99.90;;;;;;5005421;28;20041;-61
2023/03/29 04:37:54;;;;;;;8.63;3.47;;;6.50;99.90;;;;;;5000073;28;20031;-62
2023/03/29 04:40:20;;;;;;;5.70;3.10;;;6.60;99.90;;;;;;4999971;28;20413;-61
2023/03/29 04:42:46;;;;;;;7.30;3.63;;;6.60;99.90;;;;;;4998442;28;20073;-62
2023/03/29 04:45:13;;;;;;;5.50;3.35;;;6.60;99.90;;;;;;4997834;28;20058;-61
2023/03/29 04:47:42;;;;;;;8.27;3.33;;;6.60;99.90;;;;;;4998186;28;20034;-61
2023/03/29 04:50:08;;;;;;;9.13;3.38;;;6.60;99.90;;;;;;5001743;28;20433;-72
2023/03/29 04:52:34;;;;;;;5.33;3.00;;;6.60;99.90;;;;;;5008374;28;20085;-61
2023/03/29 04:55:01;;;;;;;6.28;3.58;;;6.60;99.90;;;;;;5001508;28;20029;-62
2023/03/29 04:57:27;;;;;;;4.70;2.75;;;6.70;99.90;;;;;;4998137;28;20030;-62
2023/03/29 04:59:53;;;;;;;7.43;3.28;;;6.70;99.90;;;;;;4997804;28;20022;-62
2023/03/29 05:02:19;;;;;;;8.70;3.03;;;6.70;99.90;;;;;;4997703;28;20026;-62
2023/03/29 05:04:45;;;;;;;8.10;3.40;;;6.70;99.90;;;;;;4989423;28;20053;-61
2023/03/29 05:07:11;;;;;;;6.53;3.40;;;6.70;99.90;;;;;;5015964;28;20034;-77
2023/03/29 05:09:38;;;;;;;5.65;3.22;;;6.70;99.90;;;;;;5007120;28;20542;-62
2023/03/29 05:12:04;;;;;;;7.90;3.60;;;6.70;99.90;;;;;;4993617;28;20045;-61
2023/03/29 05:14:30;;;;;;;4.82;3.10;;;6.70;99.90;;;;;;4997622;28;20097;-61
2023/03/29 05:16:56;;;;;;;7.60;3.38;;;6.70;99.90;;;;;;4998326;28;20031;-61
2023/03/29 05:19:21;;;;;;;6.53;3.13;;;6.70;99.90;;;;;;5010290;28;20038;-61
2023/03/29 05:21:51;;;;;;;2.83;2.47;;;6.80;99.90;;;;;;4998778;28;20113;-61
2023/03/29 05:24:18;;;;;;;10.15;4.03;;;6.80;99.90;;;;;;5011270;28;20014;-78
2023/03/29 05:26:46;;;;;;;;;;;6.80;99.90;;;;;;5001541;28;20023;-77
2023/03/29 05:29:12;;;;;;;8.57;3.58;;;6.80;99.90;;;;;;4997260;28;19964;-61
2023/03/29 05:31:38;;;;;;;7.30;3.55;;;6.80;99.90;;;;;;4998071;28;20038;-61
2023/03/29 05:34:05;;;;;;;6.83;3.67;;;6.70;99.90;;;;;;4997680;28;20406;-62
2023/03/29 05:36:32;;;;;;;9.52;3.45;;;6.80;99.90;;;;;;5001073;28;20014;-61
2023/03/29 05:38:58;;;;;;;7.55;3.20;;;6.80;99.90;;;;;;5006501;28;20410;-61
2023/03/29 05:41:24;;;;;;;9.95;3.78;;;6.80;99.90;;;;;;4979535;28;20030;-77
2023/03/29 05:43:50;;;;;;;6.85;4.13;;;6.80;99.90;;;;;;4997010;28;20402;-61
2023/03/29 05:46:16;;;;;;;8.00;3.30;;;6.80;99.90;;;;;;4997078;28;20038;-61
2023/03/29 05:48:42;;;;;;;10.23;4.00;;;6.90;99.90;;;;;;5010286;28;20037;-61
2023/03/29 05:51:08;;;;;;;7.67;2.90;;;6.90;99.90;;;;;;5009144;28;20306;-62
2023/03/29 05:53:34;;;;;;;6.90;3.88;;;6.90;99.90;;;;;;4998223;28;20053;-61
2023/03/29 05:56:01;;;;;;;8.23;3.70;;;6.90;99.90;;;;;;4996891;28;20413;-62
2023/03/29 05:58:27;;;;;;;7.18;4.00;;;6.90;99.90;;;;;;4996346;28;20026;-78
2023/03/29 06:00:53;;;;;;;12.63;4.20;;;6.90;99.90;;;;;;4996687;28;20030;-61
2023/03/29 06:03:24;;;;;;;8.73;3.65;;;7.00;99.90;;;;;;4997376;28;20030;-61
2023/03/29 06:05:59;;;;;;;11.90;4.70;;;7.00;99.90;;;;;;5009074;28;20034;-61
2023/03/29 06:08:26;;;;;;;7.20;3.88;;;7.00;99.90;;;;;;4996410;28;20023;-62
2023/03/29 06:11:00;;;;;;;5.57;3.50;;;7.10;99.90;;;;;;4996442;28;20033;-62
2023/03/29 06:13:27;;;;;;;17.20;4.28;;;7.10;99.90;;;;;;4995931;28;20028;-78
2023/03/29 06:15:53;;;;;;;;;;;7.10;99.90;;;;;;4979311;28;20023;-61
2023/03/29 06:18:19;;;;;;;5.40;3.00;;;7.20;99.90;;;;;;5009300;28;19909;-61
2023/03/29 06:20:49;;;;;;;9.90;4.07;;;7.20;99.90;;;;;;5011175;28;20030;-79
2023/03/29 06:23:16;;;;;;;18.95;4.80;;;7.20;99.90;;;;;;5007172;28;20034;-62
2023/03/29 06:25:43;;;;;;;30.27;5.13;;;7.30;99.90;;;;;;4998894;28;20037;-61
2023/03/29 06:28:09;;;;;;;15.85;4.70;;;7.30;99.90;;;;;;4996179;28;20027;-62
2023/03/29 06:30:35;;;;;;;10.20;4.50;;;7.30;99.90;;;;;;4996350;28;20436;-79
2023/03/29 06:33:01;;;;;;;10.67;4.10;;;7.40;99.90;;;;;;5000340;28;20370;-61
2023/03/29 06:35:26;;;;;;;11.10;4.33;;;7.40;99.90;;;;;;5006256;28;20034;-61
2023/03/29 06:37:53;;;;;;;7.37;3.97;;;7.40;99.90;;;;;;4978478;28;20034;-61
2023/03/29 06:40:20;;;;;;;15.80;4.00;;;7.50;99.90;;;;;;4995976;28;20030;-61
2023/03/29 06:42:46;;;;;;;11.93;3.88;;;7.50;99.90;;;;;;4996338;28;20037;-61
2023/03/29 06:45:13;;;;;;;8.45;4.07;;;7.60;99.90;;;;;;5007928;28;20071;-61
2023/03/29 06:47:39;;;;;;;9.25;4.22;;;7.60;99.90;;;;;;4995934;28;20351;-62
2023/03/29 06:50:07;;;;;;;7.53;3.58;;;7.70;99.90;;;;;;4995371;28;20417;-62
2023/03/29 06:52:32;;;;;;;11.77;4.55;;;7.70;99.90;;;;;;4996130;28;20042;-61
2023/03/29 06:55:00;;;;;;;10.90;4.87;;;7.70;99.90;;;;;;4995760;28;20022;-61
2023/03/29 06:57:27;;;;;;;11.48;4.68;;;7.80;99.90;;;;;;4978397;28;20325;-62
2023/03/29 06:59:53;;;;;;;6.57;3.63;;;7.90;99.90;;;;;;5006252;28;20034;-61
2023/03/29 07:02:19;;;;;;;24.08;4.47;;;7.90;99.90;;;;;;5004927;28;20057;-61
2023/03/29 07:04:46;;;;;;;19.93;4.43;;;8.00;99.90;;;;;;5008497;28;20404;-79
2023/03/29 07:07:18;;;;;;;11.05;4.43;;;8.10;99.90;;;;;;4996830;28;20033;-61
2023/03/29 07:09:52;;;;;;;14.73;4.82;;;8.20;99.90;;;;;;4995570;28;20035;-61
2023/03/29 07:12:20;;;;;;;17.65;4.68;;;8.30;99.90;;;;;;4995050;28;20345;-61
2023/03/29 07:14:46;;;;;;;12.02;4.97;;;8.40;99.90;;;;;;4999469;28;20036;-62
2023/03/29 07:17:12;;;;;;;12.65;4.78;;;8.40;99.90;;;;;;5001289;28;20392;-62
2023/03/29 07:19:38;;;;;;;8.50;4.23;;;8.50;99.90;;;;;;4994311;28;20081;-72
2023/03/29 07:22:04;;;;;;;9.87;4.67;;;8.60;99.90;;;;;;4995528;28;20054;-62
2023/03/29 07:24:29;;;;;;;14.70;4.27;;;8.70;99.90;;;;;;4994441;28;20030;-61
2023/03/29 07:26:57;;;;;;;9.57;4.37;;;8.60;99.90;;;;;;4995741;28;20026;-62
2023/03/29 07:29:23;;;;;;;12.82;4.75;;;8.70;99.90;;;;;;4994784;28;20330;-62
2023/03/29 07:31:49;;;;;;;9.23;4.83;;;8.70;99.90;;;;;;4996755;28;20027;-62
2023/03/29 07:34:16;;;;;;;7.55;4.30;;;8.80;99.90;;;;;;4995400;28;20766;-62
2023/03/29 07:36:42;;;;;;;11.90;4.82;;;8.90;99.90;;;;;;4996864;28;20038;-62
2023/03/29 07:39:08;;;;;;;10.00;5.35;;;8.90;99.90;;;;;;5001607;28;20027;-62
2023/03/29 07:41:34;;;;;;;8.33;4.93;;;9.00;99.90;;;;;;4994930;28;20040;-62
2023/03/29 07:44:08;;;;;;;27.88;5.50;;;9.20;99.90;;;;;;4995231;28;20333;-61
2023/03/29 07:46:35;;;;;;;24.80;5.68;;;9.20;99.90;;;;;;5007435;28;20030;-62
2023/03/29 07:49:02;;;;;;;12.43;5.18;;;9.30;99.90;;;;;;4995198;28;20107;-62
2023/03/29 07:51:28;;;;;;;13.27;4.95;;;9.30;99.90;;;;;;5010904;28;20113;-62
2023/03/29 07:53:53;;;;;;;24.20;5.23;;;9.40;99.90;;;;;;4995508;28;20109;-63
2023/03/29 07:56:19;;;;;;;26.77;5.93;;;9.40;99.90;;;;;;4995167;28;20022;-62
2023/03/29 07:58:45;;;;;;;17.77;5.90;;;9.40;99.90;;;;;;4997462;28;20030;-63
2023/03/29 08:01:14;;;;;;;14.45;5.05;;;9.50;99.90;;;;;;5003564;28;20029;-62
2023/03/29 08:03:40;;;;;;;23.88;5.72;;;9.60;99.90;;;;;;4994937;28;20014;-62
2023/03/29 08:06:07;;;;;;;15.88;4.72;;;9.60;99.90;;;;;;4995405;28;20026;-62
2023/03/29 08:08:32;;;;;;;13.02;5.60;;;9.70;99.90;;;;;;4994599;28;20105;-62
2023/03/29 08:10:58;;;;;;;15.40;6.03;;;9.80;99.90;;;;;;5005087;28;20385;-67
2023/03/29 08:13:24;;;;;;;15.77;5.77;;;9.90;99.90;;;;;;4994965;28;20030;-62
2023/03/29 08:15:50;;;;;;;10.47;5.30;;;9.90;99.90;;;;;;4995229;28;20406;-62
2023/03/29 08:18:16;;;;;;;18.93;4.90;;;10.00;99.90;;;;;;4994822;28;20038;-73
2023/03/29 08:20:42;;;;;;;12.70;5.30;;;10.20;99.90;;;;;;4994555;28;20041;-62
2023/03/29 08:23:08;;;;;;;14.57;5.77;;;10.20;99.90;;;;;;4995165;28;20042;-62
2023/03/29 08:25:34;;;;;;;14.70;5.77;;;10.30;99.90;;;;;;5003354;28;20030;-78
2023/03/29 08:28:00;;;;;;;14.65;6.55;;;10.40;99.90;;;;;;4998868;28;20823;-63
2023/03/29 08:30:26;;;;;;;13.83;5.30;;;10.40;99.90;;;;;;5004745;28;20035;-62
2023/03/29 08:32:52;;;;;;;20.90;6.33;;;10.50;99.90;;;;;;4994501;28;20084;-64
2023/03/29 08:35:18;;;;;;;16.23;6.55;;;10.70;99.90;;;;;;4996219;28;20034;-77
2023/03/29 08:37:44;;;;;;;30.17;6.05;;;10.70;99.90;;;;;;5002620;28;21974;-62
2023/03/29 08:40:18;;;;;;;14.27;6.03;;;10.80;99.90;;;;;;4995796;28;20035;-63
2023/03/29 08:43:08;;;;;;;30.83;6.80;;;10.90;99.90;;;;;;4998437;28;20428;-62
2023/03/29 08:45:58;;;;;;;38.20;7.25;;;10.90;99.90;;;;;;5006991;28;20494;-63
2023/03/29 08:48:41;;;;;;;14.77;6.15;;;11.00;99.90;;;;;;4999875;28;20030;-62
2023/03/29 08:51:24;;;;;;;13.90;6.60;;;11.10;99.90;;;;;;4998020;28;20030;-63
2023/03/29 08:53:58;;;;;;;17.60;6.97;;;11.20;99.90;;;;;;4998061;28;20049;-64
2023/03/29 08:56:27;;;;;;;13.00;6.95;;;11.20;99.90;;;;;;4998423;28;20301;-62
2023/03/29 08:58:55;;;;;;;11.63;6.63;;;11.30;99.90;;;;;;5004075;28;20033;-63
2023/03/29 09:01:22;;;;;;;15.18;6.93;;;11.40;99.90;;;;;;5005319;28;20316;-63
2023/03/29 09:03:57;;;;;;;15.32;7.00;;;11.50;99.90;;;;;;5004270;28;20433;-64
2023/03/29 09:06:22;;;;;;;12.40;6.32;;;11.60;99.90;;;;;;5015041;28;20444;-64
2023/03/29 09:08:50;;;;;;;16.40;6.70;;;11.60;99.90;;;;;;4999105;28;20027;-69
2023/03/29 09:11:25;;;;;;;15.38;5.90;;;11.60;99.90;;;;;;4997851;28;20054;-64
2023/03/29 09:14:00;;;;;;;14.82;7.25;;;11.50;99.90;;;;;;4997291;28;20018;-63
2023/03/29 09:16:47;;;;;;;18.33;7.75;;;11.40;99.90;;;;;;4997882;28;20029;-63
2023/03/29 09:19:15;;;;;;;16.23;7.20;;;11.60;99.90;;;;;;5004912;28;20026;-63
2023/03/29 09:22:08;;;;;;;12.48;6.32;;;11.70;99.90;;;;;;4997544;28;20022;-63
2023/03/29 09:24:48;;;;;;;17.60;6.82;;;11.90;99.90;;;;;;4997640;28;20060;-64
2023/03/29 09:27:30;;;;;;;17.77;7.75;;;12.00;99.90;;;;;;4980151;28;20318;-63
2023/03/29 09:30:25;;;;;;;17.98;7.43;;;11.90;99.90;;;;;;5011210;28;20386;-63
2023/03/29 09:33:20;;;;;;;16.20;7.22;;;12.00;99.90;;;;;;4996775;28;20030;-62
2023/03/29 09:35:52;;;;;;;18.60;8.07;;;12.10;99.90;;;;;;5000905;28;20059;-63
2023/03/29 09:38:21;;;;;;;15.35;8.13;;;12.20;99.90;;;;;;4996740;28;20435;-77
2023/03/29 09:40:52;;;;;;;12.60;7.30;;;12.30;99.90;;;;;;4997514;28;20377;-63
2023/03/29 09:43:30;;;;;;;14.45;6.97;;;12.40;99.90;;;;;;4997028;28;20030;-62
2023/03/29 09:45:59;;;;;;;16.17;7.15;;;12.50;99.90;;;;;;5000987;28;20034;-63
2023/03/29 09:48:25;;;;;;;13.95;7.57;;;12.60;99.90;;;;;;4996837;28;20018;-62
2023/03/29 09:50:52;;;;;;;16.58;8.35;;;12.70;99.90;;;;;;4996706;28;20081;-63
2023/03/29 09:53:20;;;;;;;18.98;7.63;;;12.80;99.90;;;;;;4996656;28;20109;-63
2023/03/29 09:55:48;;;;;;;12.80;7.50;;;12.80;99.90;;;;;;4996771;28;20034;-62
2023/03/29 09:58:16;;;;;;;18.45;9.07;;;12.70;99.90;;;;;;4996440;28;20021;-63
2023/03/29 10:00:43;;;;;;;14.43;7.80;;;12.60;99.90;;;;;;4997089;28;20374;-63
2023/03/29 10:03:20;;;;;;;17.90;9.00;;;12.50;99.90;;;;;;4996659;28;20031;-62
2023/03/29 10:05:51;;;;;;;14.13;8.07;;;12.50;99.90;;;;;;4997175;28;20105;-62
2023/03/29 10:08:37;;;;;;;19.95;8.65;;;12.60;99.90;;;;;;4996951;28;20085;-63
2023/03/29 10:11:19;;;;;;;16.60;8.95;;;12.70;99.90;;;;;;4996238;28;20333;-63
2023/03/29 10:13:55;;;;;;;16.90;9.23;;;12.80;99.90;;;;;;4996231;28;20026;-63
2023/03/29 10:16:32;;;;;;;22.73;8.93;;;12.90;99.90;;;;;;5002617;28;20113;-63
2023/03/29 10:18:57;;;;;;;16.17;8.75;;;13.10;99.90;;;;;;5010215;28;20030;-62
2023/03/29 10:21:27;;;;;;;16.97;8.60;;;13.00;99.90;;;;;;4996442;28;20097;-63
2023/03/29 10:23:58;;;;;;;24.52;9.88;;;13.00;99.90;;;;;;4996011;28;20041;-64
2023/03/29 10:26:27;;;;;;;19.13;9.18;;;13.10;99.90;;;;;;4996370;28;20022;-63
2023/03/29 10:28:56;;;;;;;17.58;9.35;;;13.10;99.90;;;;;;4996324;28;20022;-63
2023/03/29 10:31:23;;;;;;;17.38;8.73;;;13.20;99.90;;;;;;5010070;28;20026;-62
2023/03/29 10:33:54;;;;;;;14.35;8.18;;;13.30;99.90;;;;;;5006051;28;20042;-64
2023/03/29 10:36:22;;;;;;;21.60;9.95;;;13.30;99.90;;;;;;4995665;28;20030;-64
2023/03/29 10:38:50;;;;;;;22.67;9.25;;;13.30;99.90;;;;;;4996365;28;20046;-63
2023/03/29 10:41:16;;;;;;;21.75;10.45;;;13.20;99.90;;;;;;5008152;28;20076;-79
2023/03/29 10:43:49;;;;;;;20.45;8.85;;;13.10;99.90;;;;;;4996292;28;20031;-63
2023/03/29 10:46:30;;;;;;;20.23;9.35;;;13.10;99.90;;;;;;4995948;28;20089;-62
2023/03/29 10:48:59;;;;;;;23.23;10.35;;;13.20;99.90;;;;;;4996075;28;20026;-65
2023/03/29 10:51:29;;;;;;;19.05;9.57;;;13.20;99.90;;;;;;4995475;28;20022;-63
2023/03/29 10:53:57;;;;;;;23.70;9.98;;;13.20;99.90;;;;;;4996301;28;20026;-64
2023/03/29 10:56:41;;;;;;;18.63;9.32;;;13.20;99.90;;;;;;4997321;28;20065;-63
2023/03/29 10:59:22;;;;;;;17.40;9.82;;;13.40;99.90;;;;;;4995780;28;20097;-63
2023/03/29 11:02:12;;;;;;;17.13;9.48;;;13.60;99.90;;;;;;4997710;28;20050;-63
2023/03/29 11:04:59;;;;;;;21.20;10.10;;;13.80;99.90;;;;;;5003904;28;20062;-62
2023/03/29 11:07:40;;;;;;;15.18;8.15;;;13.90;99.90;;;;;;4995762;28;20022;-63
2023/03/29 11:10:25;;;;;;;19.30;8.75;;;13.90;99.90;;;;;;4995486;28;20077;-81
2023/03/29 11:13:39;;;;;;;19.10;8.07;;;13.80;99.90;;;;;;4996680;28;20606;-64
2023/03/29 11:16:25;;;;;;;16.80;8.13;;;13.70;99.90;;;;;;4990909;28;20096;-63
2023/03/29 11:19:28;;;;;;;11.90;7.68;;;13.60;99.90;;;;;;4978000;28;20041;-63
2023/03/29 11:22:28;;;;;;;10.60;6.78;;;13.60;99.90;;;;;;4995614;28;20034;-63
2023/03/29 11:25:15;;;;;;;18.55;8.15;;;13.50;99.90;;;;;;5003338;28;20026;-63
2023/03/29 11:27:53;;;;;;;12.43;8.38;;;13.50;99.90;;;;;;4995410;28;20029;-63
2023/03/29 11:30:37;;;;;;;17.45;8.32;;;13.50;99.90;;;;;;4995702;28;20093;-63
2023/03/29 11:33:34;;;;;;;17.02;8.57;;;13.40;99.90;;;;;;4995105;28;20097;-63
2023/03/29 11:36:09;;;;;;;22.52;8.77;;;13.40;99.90;;;;;;4994653;28;20030;-64
2023/03/29 11:38:43;;;;;;;17.88;8.88;;;13.30;99.90;;;;;;4996578;28;20033;-63
2023/03/29 11:41:20;;;;;;;13.60;7.43;;;13.30;99.90;;;;;;4998781;28;20337;-63
2023/03/29 11:43:53;;;;;;;14.85;7.88;;;13.30;99.90;;;;;;4995669;28;20038;-63
2023/03/29 11:46:34;;;;;;;15.23;7.50;;;13.30;99.90;;;;;;4994935;28;20062;-65
2023/03/29 11:49:08;;;;;;;18.38;6.97;;;13.30;99.90;;;;;;4995242;28;20063;-65
2023/03/29 11:51:41;;;;;;;12.15;6.95;;;13.30;99.90;;;;;;5008829;28;20487;-63
2023/03/29 11:54:11;;;;;;;13.27;6.85;;;13.20;99.90;;;;;;4995608;28;20162;-63
2023/03/29 11:56:50;;;;;;;11.48;6.80;;;13.30;99.90;;;;;;4994901;28;20026;-63
2023/03/29 11:59:36;;;;;;;11.82;6.93;;;13.20;99.90;;;;;;4995390;28;20045;-80
2023/03/29 12:02:41;;;;;;;8.70;5.93;;;13.10;99.90;;;;;;4994676;28;20022;-63
2023/03/29 12:05:20;;;;;;;19.65;5.93;;;13.20;99.90;;;;;;4993873;28;20334;-63
2023/03/29 12:08:00;;;;;;;9.05;5.65;;;13.10;99.90;;;;;;4995220;28;20109;-81
2023/03/29 12:10:36;;;;;;;12.45;6.75;;;13.10;99.90;;;;;;4994885;28;20030;-63
2023/03/29 12:13:10;;;;;;;23.35;6.95;;;13.00;99.90;;;;;;4994880;28;20468;-82
2023/03/29 12:15:42;;;;;;;10.40;7.20;;;12.90;99.90;;;;;;5000448;28;20409;-63
2023/03/29 12:18:20;;;;;;;18.75;7.13;;;12.90;99.90;;;;;;5007831;28;20085;-62
2023/03/29 12:20:52;;;;;;;16.25;7.40;;;12.90;99.90;;;;;;4998835;28;20461;-63
2023/03/29 12:23:18;;;;;;;13.48;8.35;;;12.80;99.90;;;;;;4998964;28;20034;-62
2023/03/29 12:26:06;;;;;;;13.73;7.10;;;12.80;99.90;;;;;;5012386;28;20038;-62
2023/03/29 12:28:53;;;;;;;20.33;7.78;;;12.70;99.90;;;;;;4998999;28;20034;-64
2023/03/29 12:31:42;;;;;;;16.75;8.95;;;12.60;99.90;;;;;;5004303;28;20045;-68
2023/03/29 12:34:44;;;;;;;13.70;8.57;;;12.50;99.90;;;;;;4997971;28;20050;-63
2023/03/29 12:37:35;;;;;;;19.85;8.25;;;12.40;99.90;;;;;;4990684;28;20120;-63
2023/03/29 12:40:19;;;;;;;15.00;8.55;;;12.30;99.90;;;;;;5003314;28;20353;-62
2023/03/29 12:42:53;;;;;;;17.25;8.88;;;12.30;99.90;;;;;;4998056;28;20030;-63
2023/03/29 12:45:28;;;;;;;18.23;8.98;;;12.30;99.90;;;;;;4998661;28;20038;-63
2023/03/29 12:47:54;;;;;;;14.25;8.27;;;12.40;99.90;;;;;;4998422;28;20027;-82
2023/03/29 12:50:33;;;;;;;16.85;8.63;;;12.50;99.90;;;;;;4998533;28;20034;-62
2023/03/29 12:53:15;;;;;;;15.30;8.70;;;12.60;99.90;;;;;;4998844;28;20031;-63
2023/03/29 12:55:41;;;;;;;15.07;8.73;;;12.70;99.90;;;;;;4998226;28;20310;-63
2023/03/29 12:58:20;;;;;;;156.83;21.07;;;12.70;99.90;;;;;;4998123;28;20037;-63
2023/03/29 13:00:49;;;;;;;190.63;29.17;;;12.70;99.90;;;;;;4998371;28;20037;-63
2023/03/29 13:03:28;;;;;;;38.08;12.73;;;12.60;99.90;;;;;;4997843;28;20093;-82
2023/03/29 13:06:03;;;;;;;58.17;13.40;;;12.60;99.90;;;;;;4996753;28;20070;-65
2023/03/29 13:08:32;;;;;;;55.28;12.75;;;12.60;99.90;;;;;;5010166;28;20153;-63